Worden, Illinois
Current Conditions -  °F | °C
As of 4:35 AM on Saturday 22 Nov 2014 (Local Time) from KALN Reporting Station
Overcast Overcast  
Wind Chill: 39°   Ceiling: 4400
Heat Index: 43°   Visibility: 10mi
Dew Point: 35°   Wind: 7mph
Humidity: 73%   Direction: 170°S
Pressure: 30.14"   Gusts: NA
Location:  38.93°N, 89.84°W
Report Text: KALN 221035Z AUTO 17006KT 10SM OVC044 06/02 A3014 RMK AO2 T00620016
Loading
Personal Weather Stations






























Interactive Weather Map New forecast layout! Learn more

10-Day Weather Forecast

Advertisements
Track Severe Weather on mobile